Millenium Air

Millenium Air Since 1998



 METAR AND TAF INFORMATION
METAR FOR GCLP
ADDS - METARS form results

(0409 UTC 02 March 2021)
Data provider http://aviationweather.gov/metar/data/
 
METAR text: GCLP 020400Z 36010KT 9999 SCT022 BKN029 BKN036 17/13 Q1020 NOSIG
Conditions at: GCLP (LAS PALMAS/GANDO, ES) observed 0400 UTC 02 March 2021
Temperature: 17.0°C (63°F)
Dewpoint: 13.0°C (55°F) [RH = 77%]
Pressure (altimeter): 30.12 inches Hg (1020.0 mb)
Winds: from the N (360 degrees) at 12 MPH (10 knots; 5.1 m/s)
Visibility: 6 or more miles (10+ km)
Ceiling: 2900 feet AGL
Clouds: scattered clouds at 2200 feet AGL
broken clouds at 2900 feet AGL
broken clouds at 3600 feet AGL
Weather: no significant weather observed at this time

METAR text: GCLP 020330Z 36009KT 9999 -RA BKN022 BKN050 17/13 Q1020 NOSIG
Conditions at: GCLP (LAS PALMAS/GANDO, ES) observed 0330 UTC 02 March 2021
Temperature: 17.0°C (63°F)
Dewpoint: 13.0°C (55°F) [RH = 77%]
Pressure (altimeter): 30.12 inches Hg (1020.0 mb)
Winds: from the N (360 degrees) at 10 MPH (9 knots; 4.6 m/s)
Visibility: 6 or more miles (10+ km)
Ceiling: 2200 feet AGL
Clouds: broken clouds at 2200 feet AGL
broken clouds at 5000 feet AGL
Weather: -RA  (light rain)

Forecast for: GCLP (LAS PALMAS/GANDO, ES)
Text: TAF GCLP 020200Z 0203/0303 35011KT 9999 BKN030 TX22/0214Z TN16/0207Z
Forecast period: 0300 UTC 02 March 2021 to 0300 UTC 03 March 2021
Forecast type: FROM: standard forecast or significant change
Winds: from the N (350 degrees) at 13 MPH (11 knots; 5.7 m/s)
Visibility: 6 or more miles (10+ km)
Ceiling: 3000 feet AGL
Clouds: broken clouds at 3000 feet AGL
Weather: no significant weather forecast for this period

 AIRPORT MAP

 RUNWAY INFORMATION
Runway 03L Runway length 10171 ft Runway width 148 ft
Runway elevation 78 ft Runway displaced threshold 0 ft Runway heading 22
Runway 21R Runway length 10171 ft Runway width 148 ft
Runway elevation 33 ft Runway displaced threshold 0 ft Runway heading 202
Runway 03R Runway length 10171 ft Runway width 148 ft
Runway elevation 69 ft Runway displaced threshold 0 ft Runway heading 22
Runway 21L Runway length 10171 ft Runway width 148 ft
Runway elevation 27 ft Runway displaced threshold 0 ft Runway heading 202

 AIRPORT FREQUENCIES
Type APP Name APP Frequency 120.9 MHZ
Type ATIS Name ATIS Frequency 118.6 MHZ
Type GND Name GND Frequency 121.7 MHZ
Type TWR Name TWR Frequency 118.3 MHZ

 AIRPORT NEAR NAVIGATION AIDS
Type VOR-DME Name Gran Canaria Frequency 112900 KHZ
Type VOR-DME Name Gran Canaria Frequency 115000 KHZ
Type TACAN Name Gran Canaria Frequency 115600 KHZ
Type NDB Name Gran Canaria Frequency 365 KHZ